createdAt,value
2022-12-20T00:01:33.602Z,3.34
2022-12-20T00:04:05.703Z,3.35
2022-12-20T00:06:35.193Z,3.39
2022-12-20T00:09:07.534Z,3.49
2022-12-20T00:11:36.215Z,3.51
2022-12-20T00:14:05.643Z,3.58
2022-12-20T00:16:33.563Z,3.61
2022-12-20T00:19:03.435Z,3.54
2022-12-20T00:21:36.281Z,3.51
2022-12-20T00:24:05.693Z,3.61
2022-12-20T00:26:35.338Z,3.51
2022-12-20T00:29:05.117Z,3.61
2022-12-20T00:31:33.572Z,3.57
2022-12-20T00:34:02.456Z,3.62
2022-12-20T00:36:33.048Z,3.65
2022-12-20T00:39:01.815Z,3.63
2022-12-20T00:41:32.165Z,3.61
2022-12-20T00:44:00.175Z,3.76
2022-12-20T00:46:31.537Z,3.67
2022-12-20T00:49:00.226Z,3.68
2022-12-20T00:51:31.905Z,3.78
2022-12-20T00:53:59.916Z,3.78
2022-12-20T00:56:28.321Z,3.56
2022-12-20T00:58:59.376Z,3.59
2022-12-20T01:01:31.541Z,3.69
2022-12-20T01:03:59.966Z,3.76
2022-12-20T01:06:28.990Z,3.80
2022-12-20T01:08:57.939Z,3.79
2022-12-20T01:11:27.135Z,3.73
2022-12-20T01:13:57.518Z,3.68
2022-12-20T01:16:27.162Z,3.79
2022-12-20T01:18:57.031Z,3.77
2022-12-20T01:21:26.477Z,3.59
2022-12-20T01:23:56.457Z,3.64
2022-12-20T01:26:26.518Z,3.73
2022-12-20T01:28:57.027Z,3.69
2022-12-20T01:31:25.961Z,3.72
2022-12-20T01:33:54.099Z,3.74
2022-12-20T01:36:25.756Z,3.71
2022-12-20T01:38:57.732Z,3.79
2022-12-20T01:41:26.638Z,3.91
2022-12-20T01:43:56.334Z,3.75
2022-12-20T01:46:25.876Z,3.71
2022-12-20T01:48:59.407Z,3.81
2022-12-20T01:51:30.472Z,3.85
2022-12-20T01:54:04.944Z,3.78
2022-12-20T01:56:33.080Z,3.91
2022-12-20T01:59:02.259Z,3.84
2022-12-20T02:01:30.506Z,3.67
2022-12-20T02:03:58.788Z,3.70
2022-12-20T02:06:28.801Z,3.89
2022-12-20T02:09:01.596Z,3.82
2022-12-20T02:11:46.643Z,3.84
2022-12-20T02:14:29.433Z,3.91
2022-12-20T02:17:05.211Z,4.03
2022-12-20T02:19:57.112Z,3.82
2022-12-20T02:22:34.407Z,3.92
2022-12-20T02:25:20.356Z,3.81
2022-12-20T02:27:59.624Z,3.88
2022-12-20T02:30:33.671Z,3.90
2022-12-20T02:33:04.555Z,3.95
2022-12-20T02:35:35.146Z,3.92
2022-12-20T02:38:25.111Z,3.97
2022-12-20T02:40:57.010Z,3.95
2022-12-20T02:44:00.299Z,4.01
2022-12-20T02:46:30.590Z,4.14
2022-12-20T02:49:03.545Z,4.03
2022-12-20T02:51:34.215Z,4.05
2022-12-20T02:54:03.014Z,4.07
2022-12-20T02:56:36.541Z,4.16
2022-12-20T02:59:08.589Z,4.14
2022-12-20T03:01:43.827Z,4.18
2022-12-20T03:04:12.447Z,4.21
2022-12-20T03:06:41.143Z,4.21
2022-12-20T03:09:09.061Z,4.20
2022-12-20T03:11:39.888Z,4.25
2022-12-20T03:14:08.000Z,4.21
2022-12-20T03:16:38.501Z,4.36
2022-12-20T03:19:06.618Z,4.38
2022-12-20T03:21:34.639Z,4.44
2022-12-20T03:24:02.631Z,4.35
2022-12-20T03:26:31.193Z,4.29
2022-12-20T03:29:01.757Z,4.46
2022-12-20T03:31:29.838Z,4.50
2022-12-20T03:33:59.184Z,4.48
2022-12-20T03:36:27.703Z,4.49
2022-12-20T03:38:59.716Z,4.50
2022-12-20T03:41:31.328Z,4.45
2022-12-20T03:44:00.942Z,4.40
2022-12-20T03:46:29.070Z,4.53
2022-12-20T03:48:58.960Z,4.47
2022-12-20T03:51:27.180Z,4.50
2022-12-20T03:53:55.330Z,4.51
2022-12-20T03:56:29.604Z,4.51
2022-12-20T03:58:57.623Z,4.53
2022-12-20T04:01:27.730Z,4.55
2022-12-20T04:03:57.309Z,4.44
2022-12-20T04:06:26.823Z,4.53
2022-12-20T04:08:54.805Z,4.50
2022-12-20T04:11:30.835Z,4.57
2022-12-20T04:14:16.957Z,4.58
2022-12-20T04:16:45.535Z,4.47
2022-12-20T04:19:14.601Z,4.47
2022-12-20T04:21:47.539Z,4.46
2022-12-20T04:24:17.060Z,4.47
2022-12-20T04:26:49.566Z,4.50
2022-12-20T04:29:18.463Z,4.52
2022-12-20T04:31:47.322Z,4.38
2022-12-20T04:34:15.767Z,4.39
2022-12-20T04:36:43.698Z,4.41
2022-12-20T04:39:23.172Z,4.42
2022-12-20T04:42:09.435Z,4.37
2022-12-20T04:44:37.437Z,4.29
2022-12-20T04:47:06.124Z,4.30
2022-12-20T04:49:34.083Z,4.34
2022-12-20T04:52:21.973Z,4.47
2022-12-20T04:54:51.131Z,4.20
2022-12-20T04:57:25.080Z,4.13
2022-12-20T04:59:53.048Z,4.13
2022-12-20T05:02:21.070Z,4.20
2022-12-20T05:04:52.768Z,4.22
2022-12-20T05:07:20.726Z,4.19
2022-12-20T05:09:54.476Z,4.06
2022-12-20T05:12:22.615Z,4.24
2022-12-20T05:14:50.504Z,4.24
2022-12-20T05:17:22.420Z,4.14
2022-12-20T05:19:50.361Z,4.12
2022-12-20T05:22:35.628Z,4.12
2022-12-20T05:25:30.651Z,4.21
2022-12-20T05:28:02.634Z,4.26
2022-12-20T05:30:35.085Z,4.27
2022-12-20T05:33:03.229Z,4.26
2022-12-20T05:35:34.263Z,4.32
2022-12-20T05:38:09.558Z,4.36
2022-12-20T05:40:40.598Z,4.32
2022-12-20T05:43:10.623Z,4.36
2022-12-20T05:45:47.713Z,4.39
2022-12-20T05:48:17.915Z,4.56
2022-12-20T05:50:47.993Z,4.31
2022-12-20T05:53:27.117Z,4.28
2022-12-20T05:56:01.259Z,4.36
2022-12-20T05:58:35.223Z,4.55
2022-12-20T06:01:08.006Z,4.55
2022-12-20T06:03:40.406Z,4.59
2022-12-20T06:06:15.074Z,4.52
2022-12-20T06:08:45.820Z,4.62
2022-12-20T06:11:30.452Z,4.62
2022-12-20T06:14:05.288Z,4.56
2022-12-20T06:16:33.978Z,4.63
2022-12-20T06:19:03.045Z,4.68
2022-12-20T06:21:32.052Z,4.66
2022-12-20T06:24:01.466Z,4.67
2022-12-20T06:26:36.411Z,4.70
2022-12-20T06:29:09.160Z,4.85
2022-12-20T06:31:44.703Z,4.72
2022-12-20T06:34:12.833Z,4.87
2022-12-20T06:36:42.913Z,4.77
2022-12-20T06:39:17.456Z,4.88
2022-12-20T06:41:59.670Z,4.93
2022-12-20T06:44:27.651Z,4.85
2022-12-20T06:46:55.699Z,4.82
2022-12-20T06:49:23.781Z,4.87
2022-12-20T06:51:52.392Z,4.77
2022-12-20T06:54:25.865Z,4.80
2022-12-20T06:56:53.804Z,4.74
2022-12-20T06:59:23.108Z,4.83
2022-12-20T07:01:51.350Z,4.88
2022-12-20T07:04:19.623Z,4.91
2022-12-20T07:06:47.526Z,4.92
2022-12-20T07:09:15.438Z,4.95
2022-12-20T07:11:44.221Z,5.08
2022-12-20T07:14:12.395Z,5.03
2022-12-20T07:16:46.519Z,4.88
2022-12-20T07:19:15.708Z,4.92
2022-12-20T07:21:43.671Z,5.04
2022-12-20T07:24:11.797Z,4.97
2022-12-20T07:26:40.993Z,5.15
2022-12-20T07:29:15.080Z,5.08
2022-12-20T07:31:44.822Z,5.18
2022-12-20T07:34:12.906Z,5.29
2022-12-20T07:36:40.967Z,5.08
2022-12-20T07:39:09.009Z,5.04
2022-12-20T07:41:36.959Z,5.13
2022-12-20T07:44:06.249Z,5.15
2022-12-20T07:46:34.725Z,5.08
2022-12-20T07:49:05.651Z,4.99
2022-12-20T07:51:37.803Z,5.01
2022-12-20T07:54:10.700Z,5.02
2022-12-20T07:56:42.152Z,4.92
2022-12-20T07:59:12.341Z,4.90
2022-12-20T08:01:42.264Z,4.88
2022-12-20T08:04:16.731Z,5.16
2022-12-20T08:06:45.095Z,5.09
2022-12-20T08:09:15.432Z,5.22
2022-12-20T08:11:46.399Z,5.13
2022-12-20T08:14:15.643Z,5.15
2022-12-20T08:16:44.507Z,5.24
2022-12-20T08:19:14.144Z,5.14
2022-12-20T08:21:42.311Z,5.07
2022-12-20T08:24:10.755Z,5.11
2022-12-20T08:26:39.859Z,5.21
2022-12-20T08:29:08.041Z,5.21
2022-12-20T08:31:49.379Z,5.07
2022-12-20T08:34:20.377Z,5.24
2022-12-20T08:36:48.990Z,5.43
2022-12-20T08:39:20.676Z,5.19
2022-12-20T08:41:51.830Z,5.19
2022-12-20T08:44:20.521Z,5.28
2022-12-20T08:46:49.105Z,5.19
2022-12-20T08:49:21.912Z,5.17
2022-12-20T08:51:50.359Z,5.22
2022-12-20T08:54:19.183Z,5.24
2022-12-20T08:56:50.590Z,5.26
2022-12-20T08:59:19.332Z,5.22
2022-12-20T09:01:47.798Z,5.36
2022-12-20T09:04:16.336Z,5.36
2022-12-20T09:06:46.510Z,5.44
2022-12-20T09:09:22.945Z,5.44
2022-12-20T09:11:51.594Z,5.34
2022-12-20T09:14:25.691Z,5.41
2022-12-20T09:16:56.629Z,5.45
2022-12-20T09:19:39.191Z,5.48
2022-12-20T09:22:10.405Z,5.60
2022-12-20T09:24:39.192Z,5.75
2022-12-20T09:27:07.763Z,5.89
2022-12-20T09:29:36.254Z,5.73
2022-12-20T09:32:04.960Z,5.82
2022-12-20T09:34:33.832Z,5.90
2022-12-20T09:37:04.167Z,5.95
2022-12-20T09:39:37.899Z,5.88
2022-12-20T09:42:18.892Z,6.14
2022-12-20T09:44:47.481Z,6.18
2022-12-20T09:47:19.351Z,6.25
2022-12-20T09:49:50.796Z,6.41
2022-12-20T09:52:35.188Z,6.55
2022-12-20T09:55:20.325Z,6.36
2022-12-20T09:57:59.873Z,6.37
2022-12-20T10:00:28.308Z,6.49
2022-12-20T10:03:06.512Z,6.55
2022-12-20T10:05:51.061Z,6.54
2022-12-20T10:08:30.422Z,6.53
2022-12-20T10:11:11.799Z,6.56
2022-12-20T10:13:53.817Z,6.60
2022-12-20T10:16:40.341Z,6.62
2022-12-20T10:19:21.854Z,6.58
2022-12-20T10:21:57.750Z,6.72
2022-12-20T10:24:30.568Z,6.74
2022-12-20T10:27:09.085Z,6.82
2022-12-20T10:29:37.834Z,6.90
2022-12-20T10:32:16.119Z,6.86
2022-12-20T10:34:53.190Z,6.77
2022-12-20T10:37:22.239Z,6.86
2022-12-20T10:39:54.576Z,6.95
2022-12-20T10:42:40.999Z,6.91
2022-12-20T10:45:35.858Z,6.82
2022-12-20T10:48:07.766Z,7.13
2022-12-20T10:50:41.528Z,7.19
2022-12-20T10:53:24.266Z,7.48
2022-12-20T10:55:55.019Z,7.55
2022-12-20T10:58:35.951Z,7.71
2022-12-20T11:01:15.032Z,7.67
2022-12-20T11:03:56.815Z,7.87
2022-12-20T11:06:27.824Z,7.80
2022-12-20T11:09:23.633Z,7.98
2022-12-20T11:12:04.061Z,8.08
2022-12-20T11:14:39.242Z,7.68
2022-12-20T11:17:22.968Z,7.79
2022-12-20T11:20:14.594Z,7.73
2022-12-20T11:22:52.642Z,7.72
2022-12-20T11:25:40.578Z,7.64
2022-12-20T11:28:45.850Z,7.61
2022-12-20T11:31:21.555Z,7.74
2022-12-20T11:34:14.259Z,7.54
2022-12-20T11:37:13.099Z,7.71
2022-12-20T11:39:51.918Z,7.68
2022-12-20T11:42:28.893Z,7.70
2022-12-20T11:45:09.737Z,7.68
2022-12-20T11:48:01.385Z,7.83
2022-12-20T11:50:47.552Z,7.80
2022-12-20T11:53:24.064Z,7.72
2022-12-20T11:55:55.736Z,7.70
2022-12-20T11:58:32.475Z,7.77
2022-12-20T12:01:07.729Z,7.90
2022-12-20T12:03:40.351Z,7.83
2022-12-20T12:06:13.959Z,7.75
2022-12-20T12:08:46.872Z,7.80
2022-12-20T12:12:03.956Z,8.00
2022-12-20T12:14:17.046Z,8.03
2022-12-20T12:16:52.146Z,7.86
2022-12-20T12:19:23.642Z,7.88
2022-12-20T12:21:58.553Z,7.98
2022-12-20T12:24:31.023Z,8.18
2022-12-20T12:27:00.298Z,8.17
2022-12-20T12:29:30.828Z,8.16
2022-12-20T12:32:04.475Z,8.11
2022-12-20T12:34:53.053Z,8.03
2022-12-20T12:37:34.738Z,8.10
2022-12-20T12:40:50.512Z,7.87
2022-12-20T12:43:49.456Z,8.16
2022-12-20T12:46:23.397Z,8.13
2022-12-20T12:48:58.699Z,8.17
2022-12-20T12:51:32.820Z,8.06
2022-12-20T12:54:15.347Z,8.08
2022-12-20T12:56:47.256Z,7.86
2022-12-20T12:59:51.187Z,7.94
2022-12-20T13:02:50.199Z,8.08
2022-12-20T13:05:36.758Z,8.26
2022-12-20T13:08:17.615Z,8.16
2022-12-20T13:11:02.099Z,8.22
2022-12-20T13:13:30.217Z,8.32
2022-12-20T13:17:02.798Z,8.25
2022-12-20T13:19:20.179Z,8.31
2022-12-20T13:21:49.545Z,8.11
2022-12-20T13:24:40.927Z,8.12
2022-12-20T13:27:32.135Z,7.90
2022-12-20T13:30:26.093Z,7.67
2022-12-20T13:33:25.143Z,7.95
2022-12-20T13:36:29.728Z,7.92
2022-12-20T13:39:00.513Z,7.87
2022-12-20T13:41:35.726Z,7.67
2022-12-20T13:44:40.838Z,7.46
2022-12-20T13:47:24.647Z,7.44
2022-12-20T13:49:52.827Z,7.46
2022-12-20T13:52:26.285Z,7.56
2022-12-20T13:55:00.525Z,7.65
2022-12-20T13:57:32.069Z,7.66
2022-12-20T14:00:07.677Z,7.46
2022-12-20T14:02:41.856Z,7.52
2022-12-20T14:05:18.895Z,7.51
2022-12-20T14:07:49.051Z,7.36
2022-12-20T14:10:22.305Z,7.50
2022-12-20T14:12:51.993Z,7.32
2022-12-20T14:15:27.441Z,7.26
2022-12-20T14:17:56.103Z,7.33
2022-12-20T14:20:30.062Z,7.35
2022-12-20T14:23:05.437Z,7.45
2022-12-20T14:25:44.500Z,7.46
2022-12-20T14:28:27.176Z,7.50
2022-12-20T14:30:57.694Z,7.46
2022-12-20T14:33:31.309Z,7.29
2022-12-20T14:36:00.347Z,7.42
2022-12-20T14:38:32.040Z,7.41
2022-12-20T14:41:00.699Z,7.38
2022-12-20T14:43:33.535Z,7.41
2022-12-20T14:46:20.106Z,7.16
2022-12-20T14:48:48.431Z,7.19
2022-12-20T14:51:22.317Z,7.29
2022-12-20T14:53:53.413Z,7.18
2022-12-20T14:56:31.455Z,7.05
2022-12-20T14:59:07.888Z,7.32
2022-12-20T15:01:43.946Z,7.08
2022-12-20T15:04:23.932Z,7.09
2022-12-20T15:06:53.870Z,6.97
2022-12-20T15:09:23.276Z,6.79
2022-12-20T15:11:55.595Z,7.02
2022-12-20T15:14:32.923Z,6.84
2022-12-20T15:17:02.436Z,6.83
2022-12-20T15:19:31.536Z,7.06
2022-12-20T15:21:59.552Z,6.80
2022-12-20T15:24:29.124Z,6.83
2022-12-20T15:26:57.857Z,6.78
2022-12-20T15:29:27.942Z,6.85
2022-12-20T15:32:06.185Z,6.95
2022-12-20T15:34:37.005Z,6.67
2022-12-20T15:37:06.361Z,6.83
2022-12-20T15:39:36.023Z,6.88
2022-12-20T15:42:06.710Z,6.67
2022-12-20T15:44:36.058Z,6.83
2022-12-20T15:47:05.689Z,6.79
2022-12-20T15:49:34.208Z,6.67
2022-12-20T15:52:04.699Z,6.69
2022-12-20T15:54:34.683Z,6.83
2022-12-20T15:57:07.301Z,6.75
2022-12-20T16:02:29.923Z,6.74
2022-12-20T16:04:58.666Z,6.70
2022-12-20T16:07:26.861Z,6.58
2022-12-20T16:09:54.993Z,6.56
2022-12-20T16:12:26.806Z,6.45
2022-12-20T16:14:55.397Z,6.53
2022-12-20T16:17:23.926Z,6.51
2022-12-20T16:19:53.295Z,6.62
2022-12-20T16:22:23.438Z,6.44
2022-12-20T16:24:51.646Z,6.27
2022-12-20T16:27:20.319Z,6.27
2022-12-20T16:29:48.530Z,6.27
2022-12-20T16:32:17.934Z,6.22
2022-12-20T16:34:46.682Z,6.18
2022-12-20T16:37:16.194Z,6.03
2022-12-20T16:39:44.327Z,6.25
2022-12-20T16:42:15.095Z,6.06
2022-12-20T16:44:45.086Z,6.04
2022-12-20T16:47:14.472Z,5.95
2022-12-20T16:49:51.725Z,5.85
2022-12-20T16:52:23.528Z,6.14
2022-12-20T16:54:52.032Z,5.99
2022-12-20T16:57:21.154Z,5.81
2022-12-20T16:59:49.301Z,5.74
2022-12-20T17:02:27.030Z,5.70
2022-12-20T17:04:55.289Z,5.87
2022-12-20T17:07:24.835Z,5.79
2022-12-20T17:10:11.573Z,5.67
2022-12-20T17:12:39.669Z,5.76
2022-12-20T17:15:14.749Z,5.50
2022-12-20T17:17:42.843Z,5.47
2022-12-20T17:20:11.662Z,5.56
2022-12-20T17:22:41.407Z,5.51
2022-12-20T17:25:20.280Z,5.60
2022-12-20T17:27:48.618Z,5.46
2022-12-20T17:30:17.283Z,5.43
2022-12-20T17:32:45.638Z,5.46
2022-12-20T17:35:29.294Z,5.67
2022-12-20T17:38:00.418Z,5.73
2022-12-20T17:40:29.648Z,5.68
2022-12-20T17:42:57.659Z,5.53
2022-12-20T17:45:29.151Z,5.46
2022-12-20T17:47:58.901Z,5.52
2022-12-20T17:50:28.185Z,5.55
2022-12-20T17:52:56.436Z,5.39
2022-12-20T17:55:27.306Z,5.40
2022-12-20T17:57:56.588Z,5.54
2022-12-20T18:00:31.818Z,5.35
2022-12-20T18:03:04.906Z,5.45
2022-12-20T18:05:33.379Z,5.48
2022-12-20T18:08:01.449Z,5.29
2022-12-20T18:10:30.866Z,5.56
2022-12-20T18:12:58.924Z,5.56
2022-12-20T18:15:27.006Z,5.47
2022-12-20T18:17:55.080Z,5.48
2022-12-20T18:20:23.284Z,5.53
2022-12-20T18:22:51.332Z,5.50
2022-12-20T18:25:21.799Z,5.62
2022-12-20T18:27:51.779Z,5.51
2022-12-20T18:30:20.230Z,5.52
2022-12-20T18:32:48.653Z,5.62
2022-12-20T18:35:17.030Z,5.37
2022-12-20T18:37:45.195Z,5.44
2022-12-20T18:40:13.462Z,5.51
2022-12-20T18:42:41.628Z,5.45
2022-12-20T18:45:14.209Z,5.47
2022-12-20T18:47:42.297Z,5.30
2022-12-20T18:50:13.143Z,5.22
2022-12-20T18:52:43.264Z,5.28
2022-12-20T18:55:15.594Z,5.33
2022-12-20T18:57:43.756Z,5.43
2022-12-20T19:00:14.867Z,5.53
2022-12-20T19:02:43.884Z,5.51
2022-12-20T19:05:13.140Z,5.72
2022-12-20T19:07:41.313Z,5.67
2022-12-20T19:10:10.475Z,5.67
2022-12-20T19:12:38.427Z,5.71
2022-12-20T19:15:07.718Z,5.78
2022-12-20T19:17:37.250Z,6.02
2022-12-20T19:20:06.695Z,6.00
2022-12-20T19:22:35.184Z,6.09
2022-12-20T19:26:05.767Z,6.10
2022-12-20T19:29:13.709Z,6.24
2022-12-20T19:31:42.000Z,6.32
2022-12-20T19:34:20.778Z,6.37
2022-12-20T19:36:51.657Z,6.36
2022-12-20T19:39:28.791Z,6.26
2022-12-20T19:42:22.836Z,6.21
2022-12-20T19:49:13.329Z,5.90
2022-12-20T20:00:07.346Z,5.87
2022-12-20T20:07:07.199Z,5.89
2022-12-20T20:11:10.295Z,5.98
2022-12-20T20:14:42.524Z,6.02
2022-12-20T20:18:03.868Z,5.95
2022-12-20T20:33:00.762Z,6.08
2022-12-20T20:35:31.290Z,6.03
2022-12-20T20:38:02.994Z,5.99
2022-12-20T20:40:31.119Z,6.18
2022-12-20T20:42:59.696Z,6.05
2022-12-20T20:45:29.723Z,6.05
2022-12-20T20:48:06.007Z,5.98
2022-12-20T20:50:34.471Z,6.05
2022-12-20T20:53:02.606Z,5.99
2022-12-20T20:55:30.653Z,6.10
2022-12-20T20:57:59.719Z,6.27
2022-12-20T21:00:31.949Z,6.22
2022-12-20T21:03:00.412Z,5.99
2022-12-20T21:08:20.407Z,5.97
2022-12-20T21:10:49.609Z,5.79
2022-12-20T21:13:17.830Z,6.00
2022-12-20T21:16:03.164Z,5.90
2022-12-20T21:18:40.629Z,5.99
2022-12-20T21:21:10.482Z,5.97
2022-12-20T21:23:45.595Z,5.95
2022-12-20T21:26:18.134Z,5.77
2022-12-20T21:28:49.046Z,5.85
2022-12-20T21:31:26.471Z,5.86
2022-12-20T21:34:15.434Z,5.93
2022-12-20T21:36:51.200Z,5.92
2022-12-20T21:39:27.951Z,5.85
2022-12-20T21:42:01.676Z,5.88
2022-12-20T21:44:30.348Z,5.91
2022-12-20T21:46:59.776Z,5.90
2022-12-20T21:49:27.967Z,5.70
2022-12-20T21:51:58.227Z,5.83
2022-12-20T21:54:26.556Z,5.79
2022-12-20T21:56:54.536Z,5.80
2022-12-20T21:59:28.114Z,5.80
2022-12-20T22:01:56.650Z,5.82
2022-12-20T22:04:26.790Z,5.83
2022-12-20T22:06:55.137Z,5.89
2022-12-20T22:09:23.294Z,6.05
2022-12-20T22:11:51.296Z,5.92
2022-12-20T22:14:19.752Z,5.82
2022-12-20T22:16:50.008Z,5.94
2022-12-20T22:19:18.347Z,5.94
2022-12-20T22:21:53.677Z,5.81
2022-12-20T22:24:25.966Z,5.67
2022-12-20T22:26:54.687Z,5.97
2022-12-20T22:29:23.299Z,5.95
2022-12-20T22:31:52.668Z,5.96
2022-12-20T22:34:21.784Z,5.98
2022-12-20T22:36:51.500Z,5.92
2022-12-20T22:39:19.815Z,5.94
2022-12-20T22:41:48.070Z,5.90
2022-12-20T22:44:19.367Z,5.95
2022-12-20T22:46:47.592Z,5.98
2022-12-20T22:49:18.522Z,5.87
2022-12-20T22:51:55.127Z,5.91
2022-12-20T22:54:35.700Z,5.90
2022-12-20T22:57:04.245Z,5.77
2022-12-20T22:59:33.325Z,5.95
2022-12-20T23:02:01.913Z,5.90
2022-12-20T23:04:30.222Z,5.80
2022-12-20T23:06:58.292Z,5.99
2022-12-20T23:09:26.690Z,5.99
2022-12-20T23:12:13.256Z,5.95
2022-12-20T23:15:03.918Z,5.87
2022-12-20T23:17:34.098Z,5.92
2022-12-20T23:20:19.395Z,5.89
2022-12-20T23:22:47.541Z,5.85
2022-12-20T23:25:20.118Z,5.97
2022-12-20T23:27:50.928Z,5.86
2022-12-20T23:30:22.548Z,5.63
2022-12-20T23:32:53.615Z,5.95
2022-12-20T23:35:22.056Z,5.62
2022-12-20T23:37:50.179Z,5.46
2022-12-20T23:40:19.082Z,5.43
2022-12-20T23:42:47.139Z,5.64
2022-12-20T23:45:16.678Z,5.50
2022-12-20T23:47:44.855Z,5.54
2022-12-20T23:50:13.549Z,5.67
2022-12-20T23:52:41.830Z,5.44
2022-12-20T23:55:10.816Z,5.63
2022-12-20T23:57:38.983Z,5.65
